ダカール の空港の天気 - METARとTAF

レオポール・セダール・サンゴール国際空港 ( GOOY / DKR ) - セネガル ダカール
飛行場実況気象(Metar)
観測時間08/11 06:00 GMT (08/11 06:00 UTC)
風向・風速西 2m/s
視程10km以上
天気現象
少しの雲 雲底高度 340m
気温27℃
湿度74%
気圧1010hPa
METARGOOY 110600Z 28004KT 9999 FEW011 27/22 Q1010
過去の天気等 Google飛行場航空写真 Wunderground天気予報

過去48時間のMETAR

飛行場予報(TAF)
発表時間: 8/11 05:30 GMT (8/11 05:30 UTC)
予報対象時間: 11日6時 GMT ~ 12日12時 GMT
風向・風速西 3m/s
視程10km以上
全天の4割程度の雲 雲底高度 400m
TAF GOOY 110530Z 1106/1212 28005KT 9999 SCT013